createdAt,value
2022-11-26T00:01:41.107Z,21.83
2022-11-26T00:03:52.138Z,23.73
2022-11-26T00:06:00.352Z,23.55
2022-11-26T00:08:05.726Z,22.48
2022-11-26T00:10:22.345Z,22.60
2022-11-26T00:12:31.724Z,23.33
2022-11-26T00:14:37.156Z,23.67
2022-11-26T00:16:42.482Z,23.08
2022-11-26T00:18:50.135Z,22.35
2022-11-26T00:20:58.966Z,21.80
2022-11-26T00:23:05.513Z,22.42
2022-11-26T00:25:19.518Z,21.63
2022-11-26T00:27:28.643Z,19.95
2022-11-26T00:29:34.143Z,22.55
2022-11-26T00:31:39.176Z,20.65
2022-11-26T00:33:46.849Z,21.45
2022-11-26T00:36:00.101Z,22.15
2022-11-26T00:38:05.911Z,19.75
2022-11-26T00:40:23.515Z,21.35
2022-11-26T00:42:28.520Z,22.48
2022-11-26T00:44:35.320Z,21.50
2022-11-26T00:46:40.924Z,20.95
2022-11-26T00:48:46.150Z,22.90
2022-11-26T00:50:55.502Z,22.20
2022-11-26T00:53:01.039Z,23.65
2022-11-26T00:55:14.396Z,22.77
2022-11-26T00:57:19.384Z,25.63
2022-11-26T00:59:26.034Z,22.55
2022-11-26T01:01:33.228Z,22.40
2022-11-26T01:03:42.692Z,23.10
2022-11-26T01:05:51.543Z,23.23
2022-11-26T01:08:03.784Z,22.27
2022-11-26T01:10:18.001Z,23.13
2022-11-26T01:12:23.295Z,23.25
2022-11-26T01:14:28.318Z,21.70
2022-11-26T01:16:42.255Z,22.58
2022-11-26T01:18:47.830Z,22.08
2022-11-26T01:20:52.996Z,23.52
2022-11-26T01:23:02.207Z,25.70
2022-11-26T01:25:08.573Z,23.80
2022-11-26T01:27:15.277Z,21.90
2022-11-26T01:29:22.187Z,21.48
2022-11-26T01:31:31.376Z,20.58
2022-11-26T01:33:36.420Z,22.63
2022-11-26T01:35:41.749Z,22.90
2022-11-26T01:37:47.718Z,23.42
2022-11-26T01:39:55.280Z,20.70
2022-11-26T01:42:08.777Z,21.95
2022-11-26T01:44:22.935Z,21.20
2022-11-26T01:46:28.792Z,21.77
2022-11-26T01:48:36.842Z,21.33
2022-11-26T01:51:07.175Z,21.23
2022-11-26T01:53:17.215Z,21.35
2022-11-26T01:55:25.189Z,19.75
2022-11-26T01:57:34.299Z,21.15
2022-11-26T01:59:43.312Z,20.77
2022-11-26T02:01:48.669Z,21.63
2022-11-26T02:04:05.260Z,22.05
2022-11-26T02:06:19.169Z,19.95
2022-11-26T02:08:24.621Z,20.08
2022-11-26T02:10:32.456Z,20.25
2022-11-26T02:12:37.785Z,20.88
2022-11-26T02:14:46.451Z,21.42
2022-11-26T02:17:05.205Z,21.60
2022-11-26T02:19:47.487Z,21.05
2022-11-26T02:22:00.557Z,21.08
2022-11-26T02:24:32.864Z,19.23
2022-11-26T02:27:41.154Z,21.00
2022-11-26T02:30:08.553Z,20.75
2022-11-26T02:32:19.754Z,22.52
2022-11-26T02:34:37.253Z,22.17
2022-11-26T02:36:52.206Z,19.60
2022-11-26T02:38:57.527Z,22.20
2022-11-26T02:41:02.998Z,19.65
2022-11-26T02:43:08.673Z,23.33
2022-11-26T02:45:24.938Z,21.70
2022-11-26T02:47:32.968Z,19.80
2022-11-26T02:49:40.307Z,20.15
2022-11-26T02:51:47.650Z,20.27
2022-11-26T02:53:55.325Z,19.48
2022-11-26T02:56:08.015Z,18.80
2022-11-26T02:58:13.056Z,19.48
2022-11-26T03:00:23.127Z,18.35
2022-11-26T03:02:35.781Z,20.10
2022-11-26T03:04:46.878Z,19.48
2022-11-26T03:06:53.282Z,20.27
2022-11-26T03:08:59.245Z,19.50
2022-11-26T03:11:04.724Z,20.83
2022-11-26T03:13:09.711Z,19.05
2022-11-26T03:15:15.321Z,18.40
2022-11-26T03:17:23.720Z,19.92
2022-11-26T03:19:29.369Z,19.55
2022-11-26T03:21:35.579Z,19.30
2022-11-26T03:23:41.697Z,18.48
2022-11-26T03:25:47.009Z,17.67
2022-11-26T03:27:51.986Z,18.42
2022-11-26T03:29:57.007Z,17.42
2022-11-26T03:32:02.354Z,17.77
2022-11-26T03:34:10.530Z,18.00
2022-11-26T03:36:15.885Z,17.60
2022-11-26T03:38:21.049Z,17.98
2022-11-26T03:40:26.372Z,17.75
2022-11-26T03:42:33.146Z,17.98
2022-11-26T03:44:38.492Z,18.77
2022-11-26T03:46:43.769Z,19.38
2022-11-26T03:48:49.110Z,18.88
2022-11-26T03:50:57.041Z,16.77
2022-11-26T03:55:08.345Z,18.38
2022-11-26T03:57:13.806Z,17.77
2022-11-26T03:59:18.882Z,17.77
2022-11-26T04:01:24.243Z,18.00
2022-11-26T04:03:30.294Z,18.10
2022-11-26T04:05:36.119Z,17.35
2022-11-26T04:07:43.704Z,16.45
2022-11-26T04:09:48.712Z,15.95
2022-11-26T04:11:54.034Z,15.25
2022-11-26T04:13:59.075Z,15.73
2022-11-26T04:16:04.570Z,15.90
2022-11-26T04:18:10.669Z,17.52
2022-11-26T04:20:16.779Z,17.70
2022-11-26T04:22:22.087Z,16.50
2022-11-26T04:24:30.692Z,17.83
2022-11-26T04:26:35.790Z,17.55
2022-11-26T04:28:41.606Z,16.98
2022-11-26T04:30:46.979Z,16.38
2022-11-26T04:32:52.260Z,17.10
2022-11-26T04:34:57.282Z,20.35
2022-11-26T04:37:02.262Z,28.45
2022-11-26T04:39:07.651Z,18.42
2022-11-26T04:41:15.218Z,17.23
2022-11-26T04:43:20.231Z,16.13
2022-11-26T04:45:25.927Z,18.88
2022-11-26T04:47:31.085Z,22.75
2022-11-26T04:49:36.041Z,26.65
2022-11-26T04:51:41.398Z,22.67
2022-11-26T04:53:46.878Z,21.02
2022-11-26T04:55:53.384Z,23.20
2022-11-26T04:58:00.927Z,29.33
2022-11-26T05:02:12.755Z,22.48
2022-11-26T05:04:18.008Z,22.27
2022-11-26T05:06:22.994Z,20.50
2022-11-26T05:08:28.370Z,15.00
2022-11-26T05:10:33.471Z,14.02
2022-11-26T05:12:38.546Z,18.23
2022-11-26T05:14:46.502Z,13.65
2022-11-26T05:18:56.782Z,20.25
2022-11-26T05:21:01.767Z,18.48
2022-11-26T05:23:07.109Z,17.55
2022-11-26T05:25:13.387Z,13.65
2022-11-26T05:27:19.005Z,12.57
2022-11-26T05:29:25.065Z,13.52
2022-11-26T05:31:33.048Z,11.02
2022-11-26T05:33:38.410Z,13.60
2022-11-26T05:35:43.702Z,12.43
2022-11-26T05:37:49.110Z,17.48
2022-11-26T05:39:54.489Z,23.27
2022-11-26T05:42:00.360Z,21.42
2022-11-26T05:44:08.114Z,21.75
2022-11-26T05:46:17.120Z,24.38
2022-11-26T05:48:24.808Z,23.23
2022-11-26T05:52:36.293Z,13.05
2022-11-26T05:54:41.956Z,12.40
2022-11-26T05:56:47.369Z,18.20
2022-11-26T05:58:52.828Z,17.95
2022-11-26T06:00:57.875Z,24.90
2022-11-26T06:03:04.177Z,22.30
2022-11-26T06:05:16.473Z,24.48
2022-11-26T06:07:21.492Z,22.40
2022-11-26T06:09:26.986Z,23.45
2022-11-26T06:11:31.944Z,14.95
2022-11-26T06:13:37.267Z,12.73
2022-11-26T06:15:43.306Z,14.63
2022-11-26T06:17:48.248Z,15.38
2022-11-26T06:19:53.652Z,20.05
2022-11-26T06:22:01.180Z,18.27
2022-11-26T06:24:06.880Z,20.35
2022-11-26T06:26:14.828Z,20.98
2022-11-26T06:30:25.647Z,21.55
2022-11-26T06:32:32.313Z,22.73
2022-11-26T06:34:37.531Z,23.52
2022-11-26T06:36:44.411Z,24.70
2022-11-26T06:38:52.171Z,22.65
2022-11-26T06:41:02.853Z,23.55
2022-11-26T06:43:08.760Z,24.48
2022-11-26T06:45:14.610Z,22.65
2022-11-26T06:47:20.230Z,22.48
2022-11-26T06:49:25.824Z,26.40
2022-11-26T06:51:30.952Z,24.25
2022-11-26T06:53:36.934Z,23.85
2022-11-26T06:55:44.529Z,22.60
2022-11-26T06:57:52.839Z,21.35
2022-11-26T06:59:58.641Z,20.60
2022-11-26T07:02:03.730Z,20.20
2022-11-26T07:04:09.214Z,19.05
2022-11-26T07:06:22.341Z,20.40
2022-11-26T07:08:27.660Z,18.60
2022-11-26T07:10:33.514Z,18.35
2022-11-26T07:12:41.401Z,19.67
2022-11-26T07:14:46.775Z,18.98
2022-11-26T07:16:51.858Z,18.10
2022-11-26T07:19:02.895Z,18.20
2022-11-26T07:21:10.845Z,17.52
2022-11-26T07:25:22.869Z,19.33
2022-11-26T07:27:28.257Z,18.30
2022-11-26T07:29:35.858Z,17.27
2022-11-26T07:31:42.046Z,19.25
2022-11-26T07:33:47.734Z,18.35
2022-11-26T07:35:55.713Z,18.55
2022-11-26T07:38:01.041Z,17.98
2022-11-26T07:40:07.514Z,19.70
2022-11-26T07:42:13.833Z,17.30
2022-11-26T07:44:18.901Z,18.48
2022-11-26T07:46:29.626Z,19.10
2022-11-26T07:48:35.957Z,16.90
2022-11-26T07:50:41.028Z,18.20
2022-11-26T07:52:46.673Z,17.33
2022-11-26T07:54:51.675Z,17.02
2022-11-26T07:56:57.124Z,15.80
2022-11-26T07:59:03.462Z,16.98
2022-11-26T08:01:13.703Z,17.33
2022-11-26T08:03:24.661Z,17.80
2022-11-26T08:05:29.678Z,16.10
2022-11-26T08:07:34.811Z,17.25
2022-11-26T08:09:40.056Z,17.95
2022-11-26T08:11:45.597Z,17.38
2022-11-26T08:13:56.843Z,17.85
2022-11-26T08:16:02.189Z,17.75
2022-11-26T08:18:07.489Z,18.40
2022-11-26T08:20:16.736Z,18.80
2022-11-26T08:22:22.153Z,17.88
2022-11-26T08:24:27.117Z,17.63
2022-11-26T08:26:37.141Z,20.60
2022-11-26T08:28:45.552Z,18.45
2022-11-26T08:30:50.794Z,18.77
2022-11-26T08:32:55.864Z,19.02
2022-11-26T08:35:02.246Z,20.63
2022-11-26T08:37:10.084Z,24.67
2022-11-26T08:41:21.278Z,22.23
2022-11-26T08:43:39.815Z,24.15
2022-11-26T08:45:56.958Z,22.05
2022-11-26T08:48:02.032Z,29.50
2022-11-26T08:50:08.841Z,23.73
2022-11-26T08:52:16.370Z,18.95
2022-11-26T08:56:28.165Z,15.38
2022-11-26T08:58:38.300Z,15.75
2022-11-26T09:00:44.917Z,14.93
2022-11-26T09:02:52.503Z,16.27
2022-11-26T09:04:57.528Z,16.52
2022-11-26T09:07:02.486Z,16.52
2022-11-26T09:09:18.225Z,16.48
2022-11-26T09:11:23.233Z,14.90
2022-11-26T09:13:28.298Z,14.60
2022-11-26T09:15:33.580Z,15.35
2022-11-26T09:17:38.610Z,15.20
2022-11-26T09:19:43.699Z,14.45
2022-11-26T09:21:49.873Z,14.32
2022-11-26T09:23:54.885Z,15.20
2022-11-26T09:26:02.866Z,15.63
2022-11-26T09:28:10.670Z,15.32
2022-11-26T09:30:17.496Z,14.80
2022-11-26T09:32:25.192Z,15.82
2022-11-26T09:34:32.668Z,15.25
2022-11-26T09:36:37.662Z,14.90
2022-11-26T09:38:43.200Z,15.32
2022-11-26T09:40:58.371Z,14.27
2022-11-26T09:43:15.070Z,15.45
2022-11-26T09:45:42.655Z,14.40
2022-11-26T09:47:51.310Z,16.25
2022-11-26T09:50:06.488Z,14.98
2022-11-26T09:52:14.662Z,15.35
2022-11-26T09:54:23.629Z,16.17
2022-11-26T09:56:30.374Z,16.15
2022-11-26T09:58:52.492Z,15.88
2022-11-26T10:01:00.889Z,15.30
2022-11-26T10:03:16.537Z,14.45
2022-11-26T10:05:22.329Z,14.13
2022-11-26T10:08:02.493Z,13.43
2022-11-26T10:10:19.789Z,13.43
2022-11-26T10:13:10.863Z,14.40
2022-11-26T10:15:20.612Z,16.67
2022-11-26T10:17:38.881Z,15.13
2022-11-26T10:19:58.942Z,13.65
2022-11-26T10:22:16.156Z,15.32
2022-11-26T10:24:29.341Z,13.43
2022-11-26T10:26:38.771Z,13.65
2022-11-26T10:28:49.321Z,14.35
2022-11-26T10:31:02.630Z,14.30
2022-11-26T10:33:12.123Z,14.95
2022-11-26T10:35:20.628Z,12.35
2022-11-26T10:37:28.064Z,12.32
2022-11-26T10:39:34.361Z,13.23
2022-11-26T10:41:40.624Z,13.77
2022-11-26T10:43:47.174Z,13.57
2022-11-26T10:45:58.834Z,13.45
2022-11-26T10:48:24.145Z,11.70
2022-11-26T10:50:47.613Z,11.77
2022-11-26T10:52:56.104Z,11.57
2022-11-26T10:55:33.825Z,11.80
2022-11-26T10:57:47.732Z,12.52
2022-11-26T10:59:55.630Z,12.00
2022-11-26T11:02:23.276Z,10.25
2022-11-26T11:04:34.217Z,12.65
2022-11-26T11:06:45.407Z,10.98
2022-11-26T11:08:54.006Z,8.75
2022-11-26T11:11:02.609Z,11.25
2022-11-26T11:13:14.813Z,8.50
2022-11-26T11:15:27.541Z,9.00
2022-11-26T11:17:42.309Z,10.38
2022-11-26T11:19:47.604Z,10.95
2022-11-26T11:21:53.424Z,9.70
2022-11-26T11:24:18.116Z,10.65
2022-11-26T11:26:26.884Z,10.48
2022-11-26T11:28:34.732Z,9.95
2022-11-26T11:30:41.105Z,10.55
2022-11-26T11:32:51.657Z,10.70
2022-11-26T11:34:57.284Z,10.73
2022-11-26T11:37:04.143Z,8.77
2022-11-26T11:39:09.745Z,10.07
2022-11-26T11:41:27.277Z,11.10
2022-11-26T11:43:39.445Z,8.73
2022-11-26T11:45:53.427Z,9.93
2022-11-26T11:48:15.679Z,9.73
2022-11-26T11:50:26.381Z,10.18
2022-11-26T11:52:45.202Z,12.23
2022-11-26T11:55:00.760Z,9.77
2022-11-26T11:57:14.967Z,9.38
2022-11-26T12:00:10.797Z,10.63
2022-11-26T12:02:59.786Z,9.65
2022-11-26T12:05:41.067Z,5.47
2022-11-26T12:07:56.885Z,6.20
2022-11-26T12:10:15.404Z,7.50
2022-11-26T12:12:25.528Z,7.28
2022-11-26T12:14:38.249Z,9.38
2022-11-26T12:16:48.260Z,8.38
2022-11-26T12:19:03.449Z,6.85
2022-11-26T12:21:15.438Z,7.22
2022-11-26T12:23:32.440Z,6.10
2022-11-26T12:25:40.485Z,7.35
2022-11-26T12:27:51.973Z,6.25
2022-11-26T12:30:03.044Z,5.65
2022-11-26T12:32:17.444Z,6.32
2022-11-26T12:34:30.819Z,7.00
2022-11-26T12:36:51.327Z,8.77
2022-11-26T12:39:01.418Z,8.80
2022-11-26T12:41:12.362Z,8.55
2022-11-26T12:43:22.806Z,27.83
2022-11-26T12:45:45.602Z,11.13
2022-11-26T12:47:57.677Z,11.68
2022-11-26T12:50:15.817Z,7.65
2022-11-26T12:52:34.158Z,6.63
2022-11-26T12:54:46.617Z,7.47
2022-11-26T12:57:02.950Z,6.97
2022-11-26T12:59:16.327Z,8.07
2022-11-26T13:01:21.872Z,8.93
2022-11-26T13:03:33.310Z,8.35
2022-11-26T13:05:58.638Z,7.82
2022-11-26T13:08:34.138Z,11.23
2022-11-26T13:10:56.343Z,17.63
2022-11-26T13:13:13.646Z,10.05
2022-11-26T13:15:27.769Z,7.88
2022-11-26T13:17:45.460Z,9.13
2022-11-26T13:19:55.079Z,7.28
2022-11-26T13:22:38.564Z,8.35
2022-11-26T13:25:05.398Z,9.00
2022-11-26T13:27:38.338Z,10.68
2022-11-26T13:30:12.351Z,10.82
2022-11-26T13:33:00.697Z,10.18
2022-11-26T13:35:24.891Z,10.52
2022-11-26T13:37:49.861Z,9.65
2022-11-26T13:40:37.466Z,10.68
2022-11-26T13:43:10.970Z,9.60
2022-11-26T13:45:52.221Z,10.02
2022-11-26T13:48:02.604Z,9.45
2022-11-26T13:50:16.196Z,9.55
2022-11-26T13:52:28.594Z,9.77
2022-11-26T13:54:40.750Z,9.20
2022-11-26T13:56:50.074Z,10.13
2022-11-26T13:59:02.010Z,8.82
2022-11-26T14:01:35.947Z,9.77
2022-11-26T14:03:48.600Z,9.05
2022-11-26T14:06:11.666Z,9.88
2022-11-26T14:08:39.411Z,9.90
2022-11-26T14:10:46.385Z,9.45
2022-11-26T14:13:20.334Z,9.27
2022-11-26T14:16:04.362Z,9.15
2022-11-26T14:18:13.783Z,9.85
2022-11-26T14:20:19.086Z,9.43
2022-11-26T14:22:33.793Z,8.95
2022-11-26T14:24:59.753Z,9.48
2022-11-26T14:27:04.699Z,9.35
2022-11-26T14:29:20.481Z,9.02
2022-11-26T14:31:31.104Z,9.25
2022-11-26T14:33:45.215Z,9.20
2022-11-26T14:35:58.793Z,8.75
2022-11-26T14:38:06.522Z,9.52
2022-11-26T14:40:27.229Z,10.10
2022-11-26T14:42:32.728Z,9.43
2022-11-26T14:44:40.566Z,9.38
2022-11-26T14:46:49.044Z,8.93
2022-11-26T14:48:59.613Z,8.30
2022-11-26T14:51:06.512Z,9.15
2022-11-26T14:53:13.991Z,7.85
2022-11-26T14:55:24.771Z,7.93
2022-11-26T14:57:41.578Z,8.57
2022-11-26T15:00:02.704Z,8.07
2022-11-26T15:02:24.607Z,7.82
2022-11-26T15:04:34.526Z,6.75
2022-11-26T15:06:45.627Z,6.85
2022-11-26T15:08:51.419Z,8.20
2022-11-26T15:11:00.843Z,7.38
2022-11-26T15:13:14.114Z,7.00
2022-11-26T15:15:25.009Z,7.45
2022-11-26T15:17:32.717Z,7.28
2022-11-26T15:19:40.839Z,7.55
2022-11-26T15:21:46.588Z,7.55
2022-11-26T15:23:55.344Z,6.55
2022-11-26T15:26:03.160Z,6.82
2022-11-26T15:30:31.814Z,8.38
2022-11-26T15:32:37.397Z,7.38
2022-11-26T15:34:43.561Z,8.10
2022-11-26T15:36:48.912Z,9.02
2022-11-26T15:39:07.190Z,9.13
2022-11-26T15:41:20.062Z,9.82
2022-11-26T15:43:30.777Z,10.20
2022-11-26T15:45:43.927Z,9.25
2022-11-26T15:47:51.389Z,9.63
2022-11-26T15:50:01.389Z,8.80
2022-11-26T15:52:11.256Z,8.90
2022-11-26T15:54:26.437Z,9.20
2022-11-26T15:56:40.077Z,8.13
2022-11-26T15:58:46.120Z,9.13
2022-11-26T16:00:57.374Z,8.15
2022-11-26T16:03:02.380Z,7.50
2022-11-26T16:05:25.277Z,7.95
2022-11-26T16:07:32.859Z,7.60
2022-11-26T16:09:37.866Z,8.43
2022-11-26T16:11:59.486Z,8.05
2022-11-26T16:14:29.349Z,8.82
2022-11-26T16:16:37.273Z,8.07
2022-11-26T16:18:47.334Z,8.95
2022-11-26T16:20:52.654Z,8.70
2022-11-26T16:23:02.034Z,8.27
2022-11-26T16:25:21.502Z,10.27
2022-11-26T16:27:30.297Z,15.90
2022-11-26T16:29:38.815Z,17.98
2022-11-26T16:31:46.440Z,15.10
2022-11-26T16:33:54.705Z,15.85
2022-11-26T16:36:00.045Z,14.98
2022-11-26T16:38:05.090Z,14.70
2022-11-26T16:40:19.375Z,14.88
2022-11-26T16:42:26.334Z,14.65
2022-11-26T16:44:31.591Z,14.40
2022-11-26T16:46:41.515Z,11.27
2022-11-26T16:48:50.192Z,9.60
2022-11-26T16:50:56.333Z,10.45
2022-11-26T16:53:01.294Z,8.98
2022-11-26T16:55:07.938Z,8.55
2022-11-26T16:57:18.982Z,9.73
2022-11-26T16:59:31.388Z,9.57
2022-11-26T17:01:36.793Z,9.18
2022-11-26T17:03:43.056Z,9.38
2022-11-26T17:05:55.168Z,9.38
2022-11-26T17:08:02.838Z,10.13
2022-11-26T17:10:14.149Z,9.85
2022-11-26T17:12:22.644Z,10.05
2022-11-26T17:14:27.707Z,10.10
2022-11-26T17:16:33.626Z,10.65
2022-11-26T17:18:38.730Z,13.45
2022-11-26T17:20:44.039Z,15.20
2022-11-26T17:22:52.111Z,11.20
2022-11-26T17:24:57.449Z,10.57
2022-11-26T17:27:09.261Z,10.70
2022-11-26T17:29:16.515Z,11.40
2022-11-26T17:31:21.592Z,12.30
2022-11-26T17:33:28.169Z,11.38
2022-11-26T17:35:33.658Z,12.43
2022-11-26T17:37:39.082Z,12.65
2022-11-26T17:39:46.650Z,11.80
2022-11-26T17:41:51.776Z,13.07
2022-11-26T17:43:56.817Z,12.88
2022-11-26T17:46:04.692Z,14.05
2022-11-26T17:50:21.691Z,9.38
2022-11-26T17:52:26.900Z,9.93
2022-11-26T17:54:31.889Z,11.00
2022-11-26T17:56:39.517Z,8.30
2022-11-26T17:58:44.629Z,7.70
2022-11-26T18:00:49.750Z,7.85
2022-11-26T18:02:55.057Z,8.00
2022-11-26T18:05:00.521Z,7.32
2022-11-26T18:07:10.228Z,7.72
2022-11-26T18:09:15.409Z,8.90
2022-11-26T18:11:20.475Z,8.35
2022-11-26T18:13:29.327Z,8.57
2022-11-26T18:15:34.498Z,9.30
2022-11-26T18:17:39.787Z,11.00
2022-11-26T18:19:45.759Z,9.75
2022-11-26T18:21:54.035Z,9.63
2022-11-26T18:26:05.529Z,11.57
2022-11-26T18:28:10.576Z,10.68
2022-11-26T18:30:19.523Z,10.52
2022-11-26T18:32:25.307Z,11.52
2022-11-26T18:42:37.539Z,10.43
2022-11-26T18:45:19.563Z,12.43
2022-11-26T18:47:27.237Z,14.30
2022-11-26T19:21:22.563Z,11.68
2022-11-26T19:37:39.899Z,13.07
2022-11-26T19:39:45.090Z,13.88
2022-11-26T19:41:50.218Z,16.45
2022-11-26T19:43:55.615Z,17.70
2022-11-26T19:46:05.896Z,17.63
2022-11-26T19:48:10.858Z,16.65
2022-11-26T19:50:16.567Z,17.38
2022-11-26T19:52:21.508Z,18.50
2022-11-26T19:54:29.482Z,19.67
2022-11-26T19:56:35.319Z,23.55
2022-11-26T19:58:41.152Z,22.67
2022-11-26T20:00:46.263Z,24.23
2022-11-26T20:02:51.300Z,20.42
2022-11-26T20:04:56.644Z,17.75
2022-11-26T20:07:01.577Z,19.20
2022-11-26T20:09:08.430Z,20.02
2022-11-26T20:11:17.629Z,19.77
2022-11-26T20:13:22.612Z,21.88
2022-11-26T20:15:27.910Z,19.35
2022-11-26T20:17:33.055Z,21.40
2022-11-26T20:19:38.506Z,19.95
2022-11-26T20:21:43.757Z,18.92
2022-11-26T20:23:49.811Z,18.38
2022-11-26T20:25:54.944Z,18.48
2022-11-26T20:28:03.969Z,17.85
2022-11-26T20:30:11.580Z,17.92
2022-11-26T20:32:16.499Z,16.25
2022-11-26T20:34:26.268Z,17.00
2022-11-26T20:36:31.438Z,17.52
2022-11-26T20:38:36.826Z,16.77
2022-11-26T20:40:43.928Z,17.10
2022-11-26T20:42:49.180Z,19.95
2022-11-26T20:44:56.853Z,19.83
2022-11-26T20:47:02.623Z,20.67
2022-11-26T20:49:10.923Z,25.00
2022-11-26T20:51:17.826Z,25.52
2022-11-26T20:53:22.919Z,25.25
2022-11-26T20:55:28.100Z,16.58
2022-11-26T20:57:33.163Z,24.38
2022-11-26T20:59:38.372Z,16.33
2022-11-26T21:01:46.283Z,17.95
2022-11-26T21:03:51.994Z,17.30
2022-11-26T21:05:57.412Z,16.48
2022-11-26T21:08:02.716Z,14.38
2022-11-26T21:10:09.811Z,15.68
2022-11-26T21:12:14.927Z,19.63
2022-11-26T21:14:20.238Z,20.17
2022-11-26T21:16:25.860Z,20.95
2022-11-26T21:18:33.704Z,16.92
2022-11-26T21:20:42.819Z,16.23
2022-11-26T21:22:47.783Z,16.05
2022-11-26T21:24:52.751Z,16.02
2022-11-26T21:26:58.146Z,15.73
2022-11-26T21:29:04.822Z,14.40
2022-11-26T21:31:11.310Z,14.30
2022-11-26T21:33:17.115Z,12.95
2022-11-26T21:35:25.077Z,12.30
2022-11-26T21:39:35.105Z,11.13
2022-11-26T21:41:42.301Z,10.82
2022-11-26T21:43:48.039Z,10.85
2022-11-26T21:45:53.024Z,11.00
2022-11-26T21:47:58.039Z,10.73
2022-11-26T21:50:03.846Z,10.63
2022-11-26T21:52:12.103Z,10.98
2022-11-26T21:56:24.614Z,9.35
2022-11-26T21:58:29.954Z,10.90
2022-11-26T22:00:34.944Z,9.65
2022-11-26T22:02:40.622Z,10.48
2022-11-26T22:04:46.155Z,10.60
2022-11-26T22:06:52.673Z,10.88
2022-11-26T22:09:00.643Z,11.15
2022-11-26T22:13:16.444Z,10.48
2022-11-26T22:15:21.474Z,9.32
2022-11-26T22:17:26.457Z,10.90
2022-11-26T22:19:34.827Z,10.75
2022-11-26T22:21:42.481Z,10.77
2022-11-26T22:25:56.046Z,9.45
2022-11-26T22:28:01.084Z,10.10
2022-11-26T22:30:07.084Z,10.65
2022-11-26T22:32:12.040Z,11.15
2022-11-26T22:34:22.311Z,10.15
2022-11-26T22:36:27.950Z,10.38
2022-11-26T22:38:33.333Z,10.13
2022-11-26T22:40:38.325Z,10.20
2022-11-26T22:42:46.037Z,11.68
2022-11-26T22:44:50.953Z,11.07
2022-11-26T22:46:55.928Z,11.60
2022-11-26T22:49:02.990Z,12.70
2022-11-26T22:51:09.389Z,12.93
2022-11-26T22:53:14.365Z,12.60
2022-11-26T22:55:19.898Z,12.52
2022-11-26T22:57:25.631Z,10.70
2022-11-26T22:59:33.509Z,11.05
2022-11-26T23:01:39.841Z,10.75
2022-11-26T23:03:44.865Z,10.70
2022-11-26T23:05:50.317Z,10.48
2022-11-26T23:07:55.367Z,10.18
2022-11-26T23:10:00.322Z,10.43
2022-11-26T23:12:05.378Z,10.52
2022-11-26T23:14:12.349Z,10.65
2022-11-26T23:16:22.321Z,10.32
2022-11-26T23:18:28.726Z,10.27
2022-11-26T23:20:34.392Z,10.75
2022-11-26T23:22:39.357Z,10.60
2022-11-26T23:24:44.839Z,11.68
2022-11-26T23:26:50.264Z,9.88
2022-11-26T23:28:55.420Z,11.13
2022-11-26T23:31:04.191Z,11.10
2022-11-26T23:33:12.401Z,9.63
2022-11-26T23:35:18.044Z,11.13
2022-11-26T23:37:24.014Z,10.30
2022-11-26T23:39:29.323Z,10.68
2022-11-26T23:41:34.285Z,10.55
2022-11-26T23:43:41.370Z,11.20
2022-11-26T23:45:49.624Z,10.38
2022-11-26T23:47:54.618Z,10.57
2022-11-26T23:50:02.952Z,12.07
2022-11-26T23:54:12.775Z,10.95
2022-11-26T23:56:22.150Z,11.15
2022-11-26T23:58:27.522Z,10.50
